Time;durP1;ratioP1;P1;durP2;ratioP2;P2;SDS_P1;SDS_P2;PMS_P1;PMS_P2;Temp;Humidity;BMP_temperature;BMP_pressure;BME280_temperature;BME280_humidity;BME280_pressure;Samples;Min_cycle;Max_cycle;Signal;HPM_P1;HPM_P2
2022/04/09 00:00:37;;;;;;;5.32;4.18;;;;;;;;;;4925201;29;20043;-62
2022/04/09 00:03:03;;;;;;;7.00;5.22;;;;;;;;;;4922260;29;20036;-62
2022/04/09 00:05:28;;;;;;;8.45;5.10;;;;;;;;;;4923983;29;20400;-62
2022/04/09 00:07:54;;;;;;;7.80;5.88;;;;;;;;;;4924905;29;20032;-63
2022/04/09 00:10:19;;;;;;;8.60;5.85;;;;;;;;;;4922146;29;20226;-62
2022/04/09 00:12:46;;;;;;;7.95;6.03;;;;;;;;;;4922779;29;20062;-61
2022/04/09 00:15:14;;;;;;;10.45;6.28;;;;;;;;;;4923317;29;20269;-61
2022/04/09 00:17:41;;;;;;;10.18;5.97;;;;;;;;;;4926709;29;20221;-61
2022/04/09 00:20:08;;;;;;;7.35;6.13;;;;;;;;;;4923460;29;20087;-62
2022/04/09 00:22:34;;;;;;;10.30;6.20;;;;;;;;;;4926498;29;20046;-61
2022/04/09 00:25:00;;;;;;;10.45;6.40;;;;;;;;;;4923211;29;20036;-61
2022/04/09 00:27:25;;;;;;;13.75;6.95;;;;;;;;;;4922378;29;20027;-60
2022/04/09 00:29:52;;;;;;;11.02;6.75;;;;;;;;;;4926717;29;20036;-61
2022/04/09 00:32:18;;;;;;;13.23;7.10;;;;;;;;;;4923092;29;20160;-61
2022/04/09 00:34:43;;;;;;;11.32;7.18;;;;;;;;;;4922950;29;20036;-61
2022/04/09 00:37:09;;;;;;;9.57;6.53;;;;;;;;;;4922299;29;20099;-61
2022/04/09 00:39:34;;;;;;;10.18;7.43;;;;;;;;;;4924104;29;20047;-62
2022/04/09 00:41:59;;;;;;;9.93;7.15;;;;;;;;;;4924605;29;20039;-61
2022/04/09 00:44:25;;;;;;;12.05;7.82;;;;;;;;;;4926600;29;20040;-60
2022/04/09 00:46:50;;;;;;;12.60;7.28;;;;;;;;;;4922865;29;20344;-61
2022/04/09 00:49:16;;;;;;;11.98;7.55;;;;;;;;;;4923414;29;20084;-61
2022/04/09 00:51:44;;;;;;;13.65;7.30;;;;;;;;;;4922629;29;20072;-65
2022/04/09 00:54:14;;;;;;;11.73;6.38;;;;;;;;;;4923655;29;20055;-64
2022/04/09 00:56:41;;;;;;;10.75;6.75;;;;;;;;;;4923767;29;20039;-61
2022/04/09 00:59:10;;;;;;;11.02;6.50;;;;;;;;;;4923102;29;20071;-61
2022/04/09 01:01:37;;;;;;;8.77;5.82;;;;;;;;;;4923858;29;20055;-61
2022/04/09 01:04:08;;;;;;;11.85;6.82;;;;;;;;;;4921844;29;20035;-60
2022/04/09 01:06:34;;;;;;;11.85;6.28;;;;;;;;;;4921198;29;20214;-60
2022/04/09 01:09:00;;;;;;;12.68;6.65;;;;;;;;;;4922961;29;20111;-60
2022/04/09 01:11:25;;;;;;;17.13;7.10;;;;;;;;;;4923050;29;20032;-61
2022/04/09 01:13:51;;;;;;;12.43;7.07;;;;;;;;;;4924843;29;20043;-61
2022/04/09 01:16:17;;;;;;;12.23;6.90;;;;;;;;;;4924634;29;20127;-61
2022/04/09 01:18:42;;;;;;;10.73;6.88;;;;;;;;;;4919442;29;20039;-60
2022/04/09 01:21:07;;;;;;;13.13;7.07;;;;;;;;;;4938061;29;20036;-61
2022/04/09 01:23:33;;;;;;;10.80;7.10;;;;;;;;;;4941081;28;20047;-61
2022/04/09 01:26:02;;;;;;;12.25;7.25;;;;;;;;;;4941915;28;20055;-60
2022/04/09 01:28:27;;;;;;;11.90;7.20;;;;;;;;;;4937952;29;20099;-61
2022/04/09 01:30:53;;;;;;;13.18;7.55;;;;;;;;;;4957175;28;20312;-59
2022/04/09 01:33:20;;;;;;;12.20;7.88;;;;;;;;;;4941723;29;20139;-59
2022/04/09 01:35:47;;;;;;;14.75;8.30;;;;;;;;;;4940557;29;20058;-61
2022/04/09 01:38:13;;;;;;;12.25;8.05;;;;;;;;;;4942716;29;20046;-60
2022/04/09 01:40:39;;;;;;;12.60;8.25;;;;;;;;;;4934958;29;20031;-60
2022/04/09 01:43:05;;;;;;;15.27;8.85;;;;;;;;;;4938746;29;20333;-62
2022/04/09 01:45:31;;;;;;;12.25;6.75;;;;;;;;;;4940215;29;20035;-61
2022/04/09 01:47:58;;;;;;;14.80;7.70;;;;;;;;;;4940522;29;20051;-61
2022/04/09 01:50:26;;;;;;;12.60;6.72;;;;;;;;;;4940426;29;20051;-61
2022/04/09 01:52:51;;;;;;;10.05;5.50;;;;;;;;;;4940418;29;20035;-61
2022/04/09 01:55:17;;;;;;;11.18;5.80;;;;;;;;;;4940890;29;20062;-61
2022/04/09 01:57:42;;;;;;;9.20;4.88;;;;;;;;;;4941741;29;20035;-61
2022/04/09 02:00:10;;;;;;;12.05;5.38;;;;;;;;;;4938352;29;20326;-62
2022/04/09 02:02:35;;;;;;;6.15;4.28;;;;;;;;;;4939080;29;20024;-62
2022/04/09 02:05:02;;;;;;;10.93;5.03;;;;;;;;;;4939882;29;20043;-59
2022/04/09 02:07:28;;;;;;;8.60;5.40;;;;;;;;;;4940753;29;20032;-62
2022/04/09 02:09:54;;;;;;;12.25;6.30;;;;;;;;;;4939666;29;20051;-62
2022/04/09 02:12:20;;;;;;;7.82;5.43;;;;;;;;;;4941058;29;20054;-62
2022/04/09 02:14:45;;;;;;;8.32;5.70;;;;;;;;;;4941850;29;20090;-62
2022/04/09 02:17:11;;;;;;;9.40;5.90;;;;;;;;;;4943413;29;20035;-63
2022/04/09 02:19:38;;;;;;;10.55;5.82;;;;;;;;;;4940896;29;20035;-62
2022/04/09 02:22:03;;;;;;;9.88;3.75;;;;;;;;;;4942848;29;20035;-63
2022/04/09 02:24:29;;;;;;;8.68;3.97;;;;;;;;;;4936943;29;20095;-63
2022/04/09 02:26:54;;;;;;;10.32;4.97;;;;;;;;;;4941160;29;20028;-61
2022/04/09 02:29:20;;;;;;;8.02;4.60;;;;;;;;;;4939746;29;20115;-61
2022/04/09 02:31:45;;;;;;;10.43;4.28;;;;;;;;;;4942161;29;20028;-63
2022/04/09 02:34:11;;;;;;;13.20;4.60;;;;;;;;;;4939302;29;20169;-60
2022/04/09 02:36:36;;;;;;;9.10;4.57;;;;;;;;;;4939782;29;20957;-63
2022/04/09 02:39:03;;;;;;;6.13;3.95;;;;;;;;;;4940947;29;20260;-61
2022/04/09 02:41:29;;;;;;;9.43;4.28;;;;;;;;;;4939685;29;20099;-63
2022/04/09 02:43:54;;;;;;;8.50;4.47;;;;;;;;;;4939143;29;20043;-62
2022/04/09 02:46:21;;;;;;;11.10;5.15;;;;;;;;;;4941925;29;20033;-61
2022/04/09 02:48:46;;;;;;;11.85;4.80;;;;;;;;;;4940247;29;20040;-61
2022/04/09 02:51:12;;;;;;;8.77;4.70;;;;;;;;;;4944190;28;20071;-60
2022/04/09 02:53:38;;;;;;;10.68;4.88;;;;;;;;;;4938767;29;20040;-62
2022/04/09 02:56:04;;;;;;;12.13;4.60;;;;;;;;;;4939642;29;20091;-62
2022/04/09 02:58:29;;;;;;;9.30;4.60;;;;;;;;;;4938988;29;20102;-62
2022/04/09 03:00:54;;;;;;;11.95;4.47;;;;;;;;;;4940572;29;20087;-62
2022/04/09 03:03:20;;;;;;;12.40;4.47;;;;;;;;;;4940997;29;20209;-62
2022/04/09 03:05:45;;;;;;;7.45;4.63;;;;;;;;;;4939115;29;20028;-63
2022/04/09 03:08:11;;;;;;;7.10;4.50;;;;;;;;;;4942908;29;20035;-62
2022/04/09 03:10:36;;;;;;;9.30;4.60;;;;;;;;;;4943413;29;20315;-62
2022/04/09 03:13:04;;;;;;;8.32;4.65;;;;;;;;;;4940244;29;20035;-61
2022/04/09 03:15:30;;;;;;;8.48;5.03;;;;;;;;;;4941316;29;20050;-60
2022/04/09 03:17:55;;;;;;;11.55;5.43;;;;;;;;;;4946411;29;20027;-61
2022/04/09 03:20:21;;;;;;;6.32;4.72;;;;;;;;;;4946816;29;20106;-61
2022/04/09 03:22:47;;;;;;;8.88;4.53;;;;;;;;;;4943086;29;20102;-61
2022/04/09 03:25:13;;;;;;;9.77;4.70;;;;;;;;;;4944684;29;20028;-63
2022/04/09 03:27:38;;;;;;;12.55;5.53;;;;;;;;;;4943597;29;20019;-62
2022/04/09 03:30:06;;;;;;;9.15;4.65;;;;;;;;;;4946641;29;20046;-62
2022/04/09 03:32:31;;;;;;;11.70;5.22;;;;;;;;;;4946644;29;20336;-60
2022/04/09 03:34:57;;;;;;;10.20;5.32;;;;;;;;;;4944182;29;20047;-60
2022/04/09 03:37:22;;;;;;;15.13;4.70;;;;;;;;;;4946666;29;20154;-63
2022/04/09 03:39:49;;;;;;;9.85;4.90;;;;;;;;;;4946040;29;20090;-62
2022/04/09 03:42:15;;;;;;;8.93;4.57;;;;;;;;;;4946618;29;20043;-61
2022/04/09 03:44:41;;;;;;;15.23;4.72;;;;;;;;;;4943808;29;20091;-60
2022/04/09 03:47:06;;;;;;;9.90;4.53;;;;;;;;;;4945287;29;20051;-61
2022/04/09 03:49:32;;;;;;;11.52;4.80;;;;;;;;;;4945264;29;20045;-62
2022/04/09 03:51:58;;;;;;;8.43;4.55;;;;;;;;;;4939530;29;20260;-63
2022/04/09 03:54:24;;;;;;;7.43;3.90;;;;;;;;;;4944561;29;20067;-61
2022/04/09 03:56:49;;;;;;;14.40;4.40;;;;;;;;;;4945445;29;20053;-62
2022/04/09 03:59:15;;;;;;;8.18;3.00;;;;;;;;;;4946158;29;20082;-62
2022/04/09 04:01:43;;;;;;;11.40;4.00;;;;;;;;;;4942911;29;20391;-61
2022/04/09 04:04:10;;;;;;;7.13;3.17;;;;;;;;;;4945046;29;20059;-61
2022/04/09 04:06:35;;;;;;;9.15;3.30;;;;;;;;;;4945821;29;20079;-61
2022/04/09 04:09:01;;;;;;;9.10;3.10;;;;;;;;;;4940639;29;20257;-61
2022/04/09 04:11:26;;;;;;;8.32;2.88;;;;;;;;;;4943374;29;20032;-62
2022/04/09 04:13:51;;;;;;;7.30;2.50;;;;;;;;;;4942849;29;20028;-63
2022/04/09 04:16:17;;;;;;;6.95;3.10;;;;;;;;;;4942615;29;20035;-62
2022/04/09 04:18:43;;;;;;;9.02;2.45;;;;;;;;;;4943609;29;20031;-62
2022/04/09 04:21:09;;;;;;;7.30;2.10;;;;;;;;;;4941526;29;20127;-62
2022/04/09 04:23:35;;;;;;;9.77;2.53;;;;;;;;;;4942719;29;20028;-62
2022/04/09 04:26:01;;;;;;;8.70;2.30;;;;;;;;;;4943595;29;20032;-62
2022/04/09 04:28:26;;;;;;;8.18;1.80;;;;;;;;;;4941142;29;20367;-61
2022/04/09 04:30:52;;;;;;;10.52;2.63;;;;;;;;;;4943935;29;20024;-61
2022/04/09 04:33:17;;;;;;;8.35;2.10;;;;;;;;;;4942276;29;20039;-60
2022/04/09 04:35:42;;;;;;;10.73;2.45;;;;;;;;;;4940396;29;20030;-61
2022/04/09 04:38:08;;;;;;;9.90;2.22;;;;;;;;;;4943743;29;20085;-60
2022/04/09 04:40:34;;;;;;;10.95;2.70;;;;;;;;;;4942193;29;20069;-61
2022/04/09 04:42:59;;;;;;;10.40;2.00;;;;;;;;;;4939606;29;20055;-61
2022/04/09 04:45:25;;;;;;;8.82;2.10;;;;;;;;;;4940630;29;20039;-61
2022/04/09 04:47:50;;;;;;;11.15;2.75;;;;;;;;;;4942331;29;20371;-61
2022/04/09 04:50:17;;;;;;;7.80;2.10;;;;;;;;;;4941277;29;20039;-63
2022/04/09 04:52:43;;;;;;;4.88;1.52;;;;;;;;;;4942201;29;20032;-63
2022/04/09 04:55:10;;;;;;;11.20;2.17;;;;;;;;;;4942424;29;20049;-63
2022/04/09 04:57:46;;;;;;;9.90;1.90;;;;;;;;;;4943349;29;20090;-62
2022/04/09 05:00:15;;;;;;;8.75;1.90;;;;;;;;;;4941252;29;20050;-62
2022/04/09 05:02:40;;;;;;;6.93;1.80;;;;;;;;;;4944942;29;20027;-63
2022/04/09 05:05:07;;;;;;;9.38;1.73;;;;;;;;;;4940964;29;20031;-62
2022/04/09 05:07:44;;;;;;;12.73;1.92;;;;;;;;;;4944004;29;20035;-62
2022/04/09 05:10:12;;;;;;;4.78;1.38;;;;;;;;;;4941483;29;20167;-60
2022/04/09 05:12:38;;;;;;;9.82;1.77;;;;;;;;;;4944603;29;20070;-62
2022/04/09 05:15:04;;;;;;;7.85;1.95;;;;;;;;;;4941528;29;20304;-62
2022/04/09 05:17:30;;;;;;;9.20;1.70;;;;;;;;;;4940816;29;20112;-61
2022/04/09 05:19:55;;;;;;;12.32;2.15;;;;;;;;;;4941584;29;20295;-61
2022/04/09 05:22:21;;;;;;;12.73;1.90;;;;;;;;;;4942325;29;20249;-60
2022/04/09 05:24:46;;;;;;;12.30;2.03;;;;;;;;;;4943506;29;20024;-61
2022/04/09 05:27:11;;;;;;;8.27;1.88;;;;;;;;;;4944490;28;20032;-61
2022/04/09 05:29:37;;;;;;;15.65;2.35;;;;;;;;;;4942600;29;20042;-60
2022/04/09 05:32:02;;;;;;;10.80;2.25;;;;;;;;;;4941017;29;20024;-60
2022/04/09 05:34:28;;;;;;;7.97;1.63;;;;;;;;;;4938869;29;20035;-61
2022/04/09 05:36:53;;;;;;;9.55;2.13;;;;;;;;;;4940743;29;20023;-60
2022/04/09 05:39:19;;;;;;;4.15;2.05;;;;;;;;;;4940113;29;20699;-60
2022/04/09 05:41:44;;;;;;;5.10;1.73;;;;;;;;;;4941764;29;20028;-60
2022/04/09 05:44:10;;;;;;;7.38;1.55;;;;;;;;;;4941824;29;20121;-61
2022/04/09 05:46:35;;;;;;;7.05;1.30;;;;;;;;;;4926278;29;20036;-61
2022/04/09 05:49:02;;;;;;;7.70;2.13;;;;;;;;;;4944017;29;20035;-61
2022/04/09 05:51:28;;;;;;;7.38;1.73;;;;;;;;;;4944201;29;20047;-62
2022/04/09 05:53:55;;;;;;;10.88;1.80;;;;;;;;;;4942154;29;20212;-62
2022/04/09 05:56:21;;;;;;;5.93;1.38;;;;;;;;;;4943698;29;20098;-61
2022/04/09 05:58:47;;;;;;;8.63;1.30;;;;;;;;;;4942326;29;20289;-60
2022/04/09 06:01:13;;;;;;;12.05;1.30;;;;;;;;;;4942669;28;20027;-60
2022/04/09 06:03:38;;;;;;;4.88;1.50;;;;;;;;;;4940600;29;20031;-62
2022/04/09 06:06:04;;;;;;;7.45;1.70;;;;;;;;;;4944395;29;20295;-64
2022/04/09 06:08:31;;;;;;;6.53;1.48;;;;;;;;;;4941126;29;20276;-60
2022/04/09 06:10:56;;;;;;;10.68;1.75;;;;;;;;;;4943381;29;20063;-61
2022/04/09 06:13:22;;;;;;;7.78;2.00;;;;;;;;;;4943452;29;20047;-61
2022/04/09 06:15:47;;;;;;;9.48;1.40;;;;;;;;;;4943573;29;20023;-60
2022/04/09 06:18:13;;;;;;;11.00;1.85;;;;;;;;;;4944357;29;20107;-60
2022/04/09 06:20:39;;;;;;;8.60;1.85;;;;;;;;;;4943358;29;20111;-62
2022/04/09 06:23:04;;;;;;;8.85;1.70;;;;;;;;;;4940465;29;20043;-60
2022/04/09 06:25:30;;;;;;;7.43;1.60;;;;;;;;;;4943355;29;20052;-59
2022/04/09 06:27:55;;;;;;;8.35;1.70;;;;;;;;;;4944737;29;20092;-59
2022/04/09 06:30:20;;;;;;;7.55;1.35;;;;;;;;;;4940130;28;20204;-60
2022/04/09 06:32:46;;;;;;;7.45;1.88;;;;;;;;;;4941636;29;20141;-60
2022/04/09 06:35:12;;;;;;;8.75;2.30;;;;;;;;;;4941212;29;20074;-60
2022/04/09 06:37:38;;;;;;;6.57;1.73;;;;;;;;;;4936628;29;20043;-61
2022/04/09 06:40:09;;;;;;;8.80;1.85;;;;;;;;;;4941968;29;20217;-59
2022/04/09 06:42:38;;;;;;;6.57;1.70;;;;;;;;;;4940877;29;20035;-62
2022/04/09 06:45:04;;;;;;;10.95;1.65;;;;;;;;;;4943578;29;20082;-61
2022/04/09 06:47:29;;;;;;;10.00;2.00;;;;;;;;;;4939653;29;20074;-62
2022/04/09 06:49:56;;;;;;;8.38;1.88;;;;;;;;;;4942346;29;20229;-62
2022/04/09 06:52:22;;;;;;;7.43;1.33;;;;;;;;;;4942958;29;20193;-61
2022/04/09 06:54:47;;;;;;;7.93;2.17;;;;;;;;;;4945959;29;20324;-61
2022/04/09 06:57:13;;;;;;;10.48;2.00;;;;;;;;;;4944141;29;20089;-61
2022/04/09 06:59:38;;;;;;;8.48;1.88;;;;;;;;;;4945769;29;20360;-60
2022/04/09 07:02:03;;;;;;;11.52;1.98;;;;;;;;;;4941710;29;20032;-61
2022/04/09 07:04:29;;;;;;;8.57;1.90;;;;;;;;;;4944289;29;20043;-58
2022/04/09 07:06:54;;;;;;;9.07;1.67;;;;;;;;;;4947279;29;20039;-60
2022/04/09 07:09:19;;;;;;;6.95;2.00;;;;;;;;;;4946370;29;20046;-61
2022/04/09 07:11:45;;;;;;;8.63;1.83;;;;;;;;;;4945783;29;20215;-60
2022/04/09 07:14:10;;;;;;;15.88;2.10;;;;;;;;;;4945122;29;20035;-61
2022/04/09 07:16:36;;;;;;;9.65;2.33;;;;;;;;;;4946900;29;20036;-62
2022/04/09 07:19:01;;;;;;;4.60;1.55;;;;;;;;;;4941668;29;20039;-62
2022/04/09 07:21:27;;;;;;;7.03;2.38;;;;;;;;;;4946261;29;20039;-61
2022/04/09 07:23:53;;;;;;;13.48;2.67;;;;;;;;;;4946440;29;20031;-59
2022/04/09 07:26:18;;;;;;;6.53;2.03;;;;;;;;;;4946930;29;20063;-62
2022/04/09 07:28:44;;;;;;;8.20;1.95;;;;;;;;;;4946475;29;20079;-61
2022/04/09 07:31:09;;;;;;;15.00;2.28;;;;;;;;;;4944393;29;20023;-60
2022/04/09 07:33:35;;;;;;;10.88;1.92;;;;;;;;;;4942729;29;20032;-61
2022/04/09 07:36:00;;;;;;;9.73;1.80;;;;;;;;;;4945600;29;20400;-60
2022/04/09 07:38:25;;;;;;;10.73;1.70;;;;;;;;;;4940281;29;20263;-59
2022/04/09 07:40:51;;;;;;;8.35;1.52;;;;;;;;;;4943758;29;20055;-60
2022/04/09 07:43:16;;;;;;;11.05;2.35;;;;;;;;;;4944870;29;20327;-60
2022/04/09 07:45:42;;;;;;;16.77;2.50;;;;;;;;;;4944368;29;20099;-61
2022/04/09 07:48:07;;;;;;;9.65;1.55;;;;;;;;;;4943523;29;20262;-61
2022/04/09 07:50:33;;;;;;;9.18;1.75;;;;;;;;;;4946054;29;20098;-60
2022/04/09 07:52:59;;;;;;;11.73;1.92;;;;;;;;;;4945322;29;20049;-60
2022/04/09 07:55:25;;;;;;;11.43;1.88;;;;;;;;;;4946375;29;20032;-60
2022/04/09 07:57:54;;;;;;;8.10;2.08;;;;;;;;;;4948536;29;20303;-60
2022/04/09 08:00:21;;;;;;;8.82;1.98;;;;;;;;;;4943787;29;20044;-60
2022/04/09 08:02:47;;;;;;;9.18;1.60;;;;;;;;;;4946146;29;20051;-60
2022/04/09 08:05:13;;;;;;;12.32;1.83;;;;;;;;;;4946360;29;20087;-60
2022/04/09 08:07:39;;;;;;;7.95;1.25;;;;;;;;;;4945793;29;20031;-59
2022/04/09 08:10:06;;;;;;;9.15;1.92;;;;;;;;;;4946156;29;20046;-59
2022/04/09 08:12:31;;;;;;;6.45;1.55;;;;;;;;;;4945611;29;20031;-60
2022/04/09 08:14:57;;;;;;;7.15;1.50;;;;;;;;;;4946180;29;20268;-60
2022/04/09 08:17:22;;;;;;;12.38;1.70;;;;;;;;;;4943550;29;20036;-60
2022/04/09 08:19:48;;;;;;;8.80;1.77;;;;;;;;;;4945308;29;20305;-60
2022/04/09 08:22:14;;;;;;;5.28;1.10;;;;;;;;;;4946291;29;20182;-59
2022/04/09 08:24:41;;;;;;;11.63;1.70;;;;;;;;;;4946118;29;20039;-60
2022/04/09 08:27:08;;;;;;;6.32;1.90;;;;;;;;;;4944663;29;20331;-62
2022/04/09 08:29:33;;;;;;;13.38;1.50;;;;;;;;;;4944949;29;20106;-61
2022/04/09 08:32:01;;;;;;;6.72;1.50;;;;;;;;;;4943018;29;20031;-61
2022/04/09 08:34:29;;;;;;;8.48;1.80;;;;;;;;;;4945594;29;20089;-60
2022/04/09 08:36:55;;;;;;;12.48;1.50;;;;;;;;;;4944396;29;20075;-61
2022/04/09 08:39:21;;;;;;;5.93;1.38;;;;;;;;;;4943640;29;20032;-61
2022/04/09 08:41:46;;;;;;;9.15;2.15;;;;;;;;;;4946894;29;20042;-61
2022/04/09 08:44:12;;;;;;;10.25;1.63;;;;;;;;;;4943880;29;20261;-62
2022/04/09 08:46:41;;;;;;;10.10;1.60;;;;;;;;;;4942580;29;20051;-61
2022/04/09 08:49:08;;;;;;;11.43;1.60;;;;;;;;;;4945246;29;20223;-71
2022/04/09 08:51:33;;;;;;;6.97;1.60;;;;;;;;;;4946113;29;20035;-61
2022/04/09 08:54:04;;;;;;;10.10;1.42;;;;;;;;;;4944749;29;20217;-64
2022/04/09 08:56:31;;;;;;;4.15;1.20;;;;;;;;;;4946824;29;20027;-60
2022/04/09 08:59:00;;;;;;;5.13;1.02;;;;;;;;;;4945403;29;20035;-61
2022/04/09 09:01:26;;;;;;;7.35;1.00;;;;;;;;;;4943459;29;20058;-61
2022/04/09 09:03:53;;;;;;;8.15;1.20;;;;;;;;;;4942745;29;20418;-60
2022/04/09 09:06:34;;;;;;;8.23;1.40;;;;;;;;;;4944572;29;20032;-64
2022/04/09 09:09:02;;;;;;;5.32;1.00;;;;;;;;;;4944485;29;20051;-61
2022/04/09 09:11:29;;;;;;;7.60;1.27;;;;;;;;;;4943341;29;20036;-61
2022/04/09 09:14:00;;;;;;;5.85;1.45;;;;;;;;;;4944213;29;20031;-61
2022/04/09 09:16:34;;;;;;;6.30;1.10;;;;;;;;;;4943966;29;20063;-62
2022/04/09 09:19:05;;;;;;;6.00;1.70;;;;;;;;;;4943827;29;20123;-61
2022/04/09 09:21:31;;;;;;;6.13;1.23;;;;;;;;;;4944817;29;20062;-61
2022/04/09 09:24:09;;;;;;;5.40;1.10;;;;;;;;;;4943429;29;20384;-61
2022/04/09 09:26:39;;;;;;;4.47;1.10;;;;;;;;;;4942524;29;20234;-61
2022/04/09 09:29:05;;;;;;;2.78;0.80;;;;;;;;;;4943802;29;20040;-60
2022/04/09 09:31:44;;;;;;;1.92;0.65;;;;;;;;;;4941057;29;20040;-60
2022/04/09 09:34:18;;;;;;;7.43;1.20;;;;;;;;;;4942875;29;20209;-61
2022/04/09 09:36:44;;;;;;;8.05;1.25;;;;;;;;;;4954358;28;20039;-59
2022/04/09 09:39:19;;;;;;;5.63;1.27;;;;;;;;;;4942010;29;20210;-61
2022/04/09 09:41:50;;;;;;;6.95;1.73;;;;;;;;;;4943995;29;20114;-61
2022/04/09 09:44:17;;;;;;;6.55;1.55;;;;;;;;;;4943207;29;20036;-62
2022/04/09 09:46:45;;;;;;;6.03;1.55;;;;;;;;;;4941724;29;20045;-60
2022/04/09 09:49:11;;;;;;;3.90;0.98;;;;;;;;;;4943662;29;20042;-61
2022/04/09 09:51:36;;;;;;;4.80;1.17;;;;;;;;;;4944266;29;20047;-59
2022/04/09 09:54:03;;;;;;;6.65;1.27;;;;;;;;;;4939588;29;20024;-62
2022/04/09 09:56:35;;;;;;;3.58;0.90;;;;;;;;;;4943364;29;20073;-61
2022/04/09 09:59:00;;;;;;;3.45;0.98;;;;;;;;;;4941113;29;20150;-60
2022/04/09 10:01:27;;;;;;;6.13;1.40;;;;;;;;;;4943844;29;20047;-60
2022/04/09 10:03:53;;;;;;;4.78;1.02;;;;;;;;;;4943132;29;20094;-59
2022/04/09 10:06:21;;;;;;;6.03;1.50;;;;;;;;;;4942670;29;20044;-60
2022/04/09 10:08:47;;;;;;;4.47;1.10;;;;;;;;;;4942421;29;20077;-60
2022/04/09 10:11:15;;;;;;;6.05;1.10;;;;;;;;;;4940068;29;20078;-60
2022/04/09 10:13:43;;;;;;;5.40;1.00;;;;;;;;;;4944452;29;20106;-59
2022/04/09 10:16:12;;;;;;;4.20;1.00;;;;;;;;;;4944201;29;20092;-59
2022/04/09 10:18:38;;;;;;;4.85;1.20;;;;;;;;;;4941701;29;20331;-59
2022/04/09 10:21:05;;;;;;;4.65;1.25;;;;;;;;;;4940550;29;20063;-61
2022/04/09 10:23:33;;;;;;;6.72;1.45;;;;;;;;;;4940958;29;20070;-61
2022/04/09 10:26:01;;;;;;;5.25;1.13;;;;;;;;;;4940296;28;20205;-60
2022/04/09 10:28:39;;;;;;;3.85;1.23;;;;;;;;;;4941443;29;20032;-59
2022/04/09 10:31:23;;;;;;;4.78;1.52;;;;;;;;;;4940875;29;20039;-60
2022/04/09 10:33:56;;;;;;;3.47;0.90;;;;;;;;;;4944036;29;20038;-60
2022/04/09 10:36:40;;;;;;;6.90;1.08;;;;;;;;;;4941109;29;20119;-60
2022/04/09 10:39:39;;;;;;;4.60;1.30;;;;;;;;;;4939030;29;20039;-60
2022/04/09 10:42:06;;;;;;;1.48;0.40;;;;;;;;;;4941638;29;20024;-59
2022/04/09 10:44:34;;;;;;;3.60;0.40;;;;;;;;;;4941868;28;20036;-58
2022/04/09 10:47:01;;;;;;;2.67;0.40;;;;;;;;;;4938413;29;20098;-59
2022/04/09 10:49:28;;;;;;;2.35;0.50;;;;;;;;;;4941277;29;20351;-61
2022/04/09 10:52:17;;;;;;;1.77;0.50;;;;;;;;;;4939802;29;20036;-61
2022/04/09 10:55:22;;;;;;;2.92;0.70;;;;;;;;;;4939502;29;20269;-61
2022/04/09 10:57:49;;;;;;;1.70;0.47;;;;;;;;;;4937224;29;20119;-60
2022/04/09 11:00:23;;;;;;;1.80;0.38;;;;;;;;;;4938612;29;20031;-59
2022/04/09 11:03:11;;;;;;;0.98;0.40;;;;;;;;;;4939740;29;20126;-60
2022/04/09 11:05:40;;;;;;;2.33;0.85;;;;;;;;;;4938990;29;20062;-61
2022/04/09 11:08:09;;;;;;;3.30;0.90;;;;;;;;;;4940971;29;20040;-60
2022/04/09 11:10:35;;;;;;;2.47;0.77;;;;;;;;;;4939841;29;20083;-60
2022/04/09 11:13:01;;;;;;;4.95;0.65;;;;;;;;;;4942320;29;20031;-60
2022/04/09 11:15:29;;;;;;;1.40;0.60;;;;;;;;;;4940188;29;20344;-60
2022/04/09 11:18:01;;;;;;;0.85;0.40;;;;;;;;;;4942626;29;20035;-60
2022/04/09 11:20:31;;;;;;;3.03;0.65;;;;;;;;;;4938632;29;20042;-63
2022/04/09 11:22:56;;;;;;;3.80;0.50;;;;;;;;;;4941494;29;20078;-60
2022/04/09 11:25:24;;;;;;;3.17;0.80;;;;;;;;;;4942311;29;20035;-60
2022/04/09 11:28:03;;;;;;;1.38;0.50;;;;;;;;;;4939538;29;20067;-60
2022/04/09 11:30:29;;;;;;;0.32;0.30;;;;;;;;;;4940011;29;20035;-60
2022/04/09 11:32:54;;;;;;;3.03;0.70;;;;;;;;;;4942691;29;20035;-61
2022/04/09 11:35:24;;;;;;;2.05;0.65;;;;;;;;;;4941191;29;20035;-61
2022/04/09 11:37:50;;;;;;;1.33;0.50;;;;;;;;;;4942878;29;20062;-60
2022/04/09 11:40:18;;;;;;;1.73;0.90;;;;;;;;;;4942953;29;20048;-59
2022/04/09 11:42:52;;;;;;;2.85;0.60;;;;;;;;;;4941135;29;20068;-61
2022/04/09 11:45:26;;;;;;;0.65;0.35;;;;;;;;;;4944229;29;20040;-61
2022/04/09 11:47:59;;;;;;;0.90;0.40;;;;;;;;;;4945503;29;20031;-62
2022/04/09 11:50:25;;;;;;;1.20;0.47;;;;;;;;;;4941150;29;20039;-61
2022/04/09 11:52:52;;;;;;;2.33;0.57;;;;;;;;;;4944556;29;20284;-60
2022/04/09 11:55:17;;;;;;;1.65;0.50;;;;;;;;;;4939344;29;20317;-59
2022/04/09 11:57:54;;;;;;;4.57;0.70;;;;;;;;;;4946152;29;20043;-61
2022/04/09 12:00:25;;;;;;;1.48;0.60;;;;;;;;;;4941113;29;20039;-61
2022/04/09 12:02:50;;;;;;;1.50;0.57;;;;;;;;;;4942308;29;20027;-61
2022/04/09 12:05:16;;;;;;;3.28;1.10;;;;;;;;;;4942530;29;20098;-61
2022/04/09 12:07:44;;;;;;;1.58;0.80;;;;;;;;;;4942936;28;20075;-60
2022/04/09 12:10:25;;;;;;;3.95;1.00;;;;;;;;;;4940067;29;20032;-61
2022/04/09 12:13:02;;;;;;;3.03;1.30;;;;;;;;;;4943967;29;20143;-62
2022/04/09 12:15:32;;;;;;;3.97;0.98;;;;;;;;;;4940702;29;20031;-61
2022/04/09 12:18:00;;;;;;;5.03;1.02;;;;;;;;;;4942898;29;20030;-61
2022/04/09 12:20:35;;;;;;;2.40;0.80;;;;;;;;;;4942875;29;20084;-61
2022/04/09 12:23:02;;;;;;;3.72;0.82;;;;;;;;;;4944401;29;20181;-60
2022/04/09 12:25:33;;;;;;;3.80;0.93;;;;;;;;;;4945430;29;20090;-60
2022/04/09 12:27:58;;;;;;;6.03;1.08;;;;;;;;;;4946578;29;20028;-58
2022/04/09 12:30:41;;;;;;;6.13;0.80;;;;;;;;;;4944058;29;20040;-61
2022/04/09 12:33:08;;;;;;;3.17;0.93;;;;;;;;;;4941673;29;20036;-61
2022/04/09 12:35:33;;;;;;;9.30;1.63;;;;;;;;;;4942142;29;20059;-61
2022/04/09 12:38:00;;;;;;;5.68;1.20;;;;;;;;;;4945289;29;20038;-58
2022/04/09 12:40:29;;;;;;;5.28;0.93;;;;;;;;;;4944205;29;20098;-61
2022/04/09 12:42:55;;;;;;;6.93;0.98;;;;;;;;;;4947911;29;20090;-63
2022/04/09 12:45:23;;;;;;;5.40;1.15;;;;;;;;;;4942465;29;20044;-60
2022/04/09 12:47:59;;;;;;;6.97;1.20;;;;;;;;;;4945351;29;20094;-60
2022/04/09 12:50:30;;;;;;;4.68;1.00;;;;;;;;;;4943839;29;20043;-59
2022/04/09 12:53:01;;;;;;;6.47;1.20;;;;;;;;;;4944557;29;20107;-60
2022/04/09 12:55:28;;;;;;;1.35;0.63;;;;;;;;;;4942154;29;20308;-60
2022/04/09 12:57:54;;;;;;;3.78;0.98;;;;;;;;;;4944414;29;20040;-60
2022/04/09 13:00:21;;;;;;;3.20;0.90;;;;;;;;;;4943073;29;20036;-59
2022/04/09 13:02:48;;;;;;;3.28;0.77;;;;;;;;;;4942094;29;20051;-62
2022/04/09 13:05:15;;;;;;;3.80;0.80;;;;;;;;;;4945537;29;20027;-62
2022/04/09 13:07:41;;;;;;;2.28;0.80;;;;;;;;;;4944504;29;20031;-64
2022/04/09 13:10:08;;;;;;;4.30;1.08;;;;;;;;;;4941967;29;20344;-61
2022/04/09 13:12:34;;;;;;;4.53;0.90;;;;;;;;;;4940650;29;20043;-61
2022/04/09 13:15:00;;;;;;;3.30;0.80;;;;;;;;;;4943468;29;20044;-61
2022/04/09 13:17:26;;;;;;;5.05;0.90;;;;;;;;;;4943715;29;20162;-61
2022/04/09 13:19:51;;;;;;;2.72;0.90;;;;;;;;;;4941456;29;20055;-61
2022/04/09 13:22:17;;;;;;;5.22;1.15;;;;;;;;;;4941727;29;20023;-60
2022/04/09 13:24:42;;;;;;;2.28;0.88;;;;;;;;;;4942371;29;20192;-61
2022/04/09 13:27:08;;;;;;;2.65;0.82;;;;;;;;;;4945877;29;20301;-61
2022/04/09 13:29:34;;;;;;;4.32;1.17;;;;;;;;;;4943608;29;20131;-61
2022/04/09 13:31:59;;;;;;;3.97;0.70;;;;;;;;;;4942775;29;20221;-62
2022/04/09 13:34:25;;;;;;;2.15;0.80;;;;;;;;;;4942759;29;20825;-61
2022/04/09 13:36:50;;;;;;;3.13;1.00;;;;;;;;;;4944411;29;20320;-60
2022/04/09 13:39:16;;;;;;;1.95;0.68;;;;;;;;;;4942267;29;20036;-61
2022/04/09 13:41:42;;;;;;;2.58;1.00;;;;;;;;;;4943598;29;20031;-60
2022/04/09 13:44:08;;;;;;;3.60;1.10;;;;;;;;;;4944541;29;20058;-61
2022/04/09 13:46:33;;;;;;;2.90;0.98;;;;;;;;;;4937272;29;20194;-61
2022/04/09 13:48:59;;;;;;;2.45;0.98;;;;;;;;;;4939674;29;20082;-60
2022/04/09 13:51:24;;;;;;;2.17;1.10;;;;;;;;;;4936873;29;20032;-61
2022/04/09 13:53:50;;;;;;;1.92;0.60;;;;;;;;;;4940342;29;20098;-60
2022/04/09 13:56:15;;;;;;;2.60;0.70;;;;;;;;;;4942844;29;20023;-61
2022/04/09 13:58:41;;;;;;;4.53;0.60;;;;;;;;;;4943886;29;20024;-60
2022/04/09 14:01:06;;;;;;;1.88;0.65;;;;;;;;;;4942969;29;20075;-59
2022/04/09 14:03:32;;;;;;;1.70;0.47;;;;;;;;;;4940185;29;20043;-60
2022/04/09 14:05:59;;;;;;;3.92;0.63;;;;;;;;;;4942284;29;20314;-60
2022/04/09 14:08:25;;;;;;;2.35;0.50;;;;;;;;;;4939203;29;20198;-58
2022/04/09 14:10:50;;;;;;;1.13;0.70;;;;;;;;;;4933550;29;20250;-60
2022/04/09 14:13:16;;;;;;;2.97;0.82;;;;;;;;;;4942575;29;20023;-61
2022/04/09 14:15:42;;;;;;;2.80;0.68;;;;;;;;;;4939219;29;20040;-60
2022/04/09 14:18:09;;;;;;;4.25;1.00;;;;;;;;;;4941249;29;20064;-62
2022/04/09 14:20:34;;;;;;;2.33;0.65;;;;;;;;;;4942382;29;20043;-62
2022/04/09 14:23:02;;;;;;;2.17;0.63;;;;;;;;;;4941783;29;20073;-61
2022/04/09 14:25:28;;;;;;;3.63;0.95;;;;;;;;;;4939931;29;20142;-60
2022/04/09 14:27:54;;;;;;;3.08;0.82;;;;;;;;;;4943049;29;20095;-63
2022/04/09 14:30:20;;;;;;;6.15;1.00;;;;;;;;;;4942603;29;20024;-60
2022/04/09 14:32:46;;;;;;;5.65;1.00;;;;;;;;;;4941895;29;20058;-61
2022/04/09 14:35:11;;;;;;;4.00;1.05;;;;;;;;;;4941814;29;20264;-60
2022/04/09 14:37:36;;;;;;;1.42;0.63;;;;;;;;;;4940987;29;20043;-60